sensor_id;sensor_type;location;lat;lon;timestamp;pressure;altitude;pressure_sealevel;temperature;humidity
49949;BME280;35840;45.982;8.890;2023-08-17T00:02:12;98599.16;;;24.34;64.91
49949;BME280;35840;45.982;8.890;2023-08-17T00:04:40;98590.16;;;24.28;65.28
49949;BME280;35840;45.982;8.890;2023-08-17T00:07:07;98587.53;;;24.28;65.23
49949;BME280;35840;45.982;8.890;2023-08-17T00:09:34;98582.53;;;24.41;64.98
49949;BME280;35840;45.982;8.890;2023-08-17T00:12:01;98580.28;;;24.53;65.89
49949;BME280;35840;45.982;8.890;2023-08-17T00:14:29;98579.25;;;24.16;65.58
49949;BME280;35840;45.982;8.890;2023-08-17T00:16:55;98586.63;;;24.44;65.39
49949;BME280;35840;45.982;8.890;2023-08-17T00:19:22;98580.16;;;24.47;64.36
49949;BME280;35840;45.982;8.890;2023-08-17T00:21:49;98589.00;;;24.31;64.51
49949;BME280;35840;45.982;8.890;2023-08-17T00:24:15;98588.81;;;24.55;64.75
49949;BME280;35840;45.982;8.890;2023-08-17T00:26:42;98593.72;;;24.58;64.65
49949;BME280;35840;45.982;8.890;2023-08-17T00:29:09;98593.03;;;24.65;65.01
49949;BME280;35840;45.982;8.890;2023-08-17T00:31:36;98590.75;;;24.62;65.13
49949;BME280;35840;45.982;8.890;2023-08-17T00:34:03;98584.53;;;24.63;65.44
49949;BME280;35840;45.982;8.890;2023-08-17T00:36:30;98594.53;;;24.59;65.80
49949;BME280;35840;45.982;8.890;2023-08-17T00:38:57;98591.75;;;24.61;65.71
49949;BME280;35840;45.982;8.890;2023-08-17T00:41:23;98590.09;;;24.60;66.41
49949;BME280;35840;45.982;8.890;2023-08-17T00:43:50;98580.25;;;24.62;66.07
49949;BME280;35840;45.982;8.890;2023-08-17T00:46:17;98588.25;;;24.68;65.95
49949;BME280;35840;45.982;8.890;2023-08-17T00:48:46;98585.50;;;24.62;66.06
49949;BME280;35840;45.982;8.890;2023-08-17T00:51:13;98588.81;;;24.55;66.40
49949;BME280;35840;45.982;8.890;2023-08-17T00:53:40;98596.66;;;24.64;65.77
49949;BME280;35840;45.982;8.890;2023-08-17T00:56:08;98597.59;;;24.71;64.32
49949;BME280;35840;45.982;8.890;2023-08-17T00:58:35;98596.22;;;24.75;64.17
49949;BME280;35840;45.982;8.890;2023-08-17T01:01:02;98598.84;;;24.75;64.67
49949;BME280;35840;45.982;8.890;2023-08-17T01:03:29;98594.25;;;24.77;65.57
49949;BME280;35840;45.982;8.890;2023-08-17T01:05:57;98591.81;;;24.75;64.47
49949;BME280;35840;45.982;8.890;2023-08-17T01:08:24;98588.44;;;24.82;64.17
49949;BME280;35840;45.982;8.890;2023-08-17T01:11:18;98588.91;;;24.85;63.84
49949;BME280;35840;45.982;8.890;2023-08-17T01:14:06;98602.44;;;24.82;64.36
49949;BME280;35840;45.982;8.890;2023-08-17T01:16:45;98604.03;;;24.68;65.48
49949;BME280;35840;45.982;8.890;2023-08-17T01:19:22;98616.72;;;24.56;66.24
49949;BME280;35840;45.982;8.890;2023-08-17T01:22:07;98621.72;;;24.51;66.19
49949;BME280;35840;45.982;8.890;2023-08-17T01:24:34;98620.97;;;24.66;66.36
49949;BME280;35840;45.982;8.890;2023-08-17T01:27:01;98631.13;;;24.69;66.47
49949;BME280;35840;45.982;8.890;2023-08-17T01:29:28;98632.69;;;24.55;65.80
49949;BME280;35840;45.982;8.890;2023-08-17T01:32:12;98619.44;;;24.48;65.86
49949;BME280;35840;45.982;8.890;2023-08-17T01:34:48;98640.53;;;24.63;65.27
49949;BME280;35840;45.982;8.890;2023-08-17T01:37:19;98643.97;;;24.64;65.36
49949;BME280;35840;45.982;8.890;2023-08-17T01:39:50;98648.91;;;24.67;66.70
49949;BME280;35840;45.982;8.890;2023-08-17T01:42:21;98649.34;;;24.70;65.72
49949;BME280;35840;45.982;8.890;2023-08-17T01:44:49;98655.50;;;24.63;66.19
49949;BME280;35840;45.982;8.890;2023-08-17T01:47:20;98651.56;;;24.58;66.06
49949;BME280;35840;45.982;8.890;2023-08-17T01:49:47;98647.69;;;24.46;66.24
49949;BME280;35840;45.982;8.890;2023-08-17T01:52:15;98645.94;;;24.38;66.78
49949;BME280;35840;45.982;8.890;2023-08-17T01:54:42;98654.47;;;24.17;66.73
49949;BME280;35840;45.982;8.890;2023-08-17T01:57:09;98650.88;;;24.10;66.11
49949;BME280;35840;45.982;8.890;2023-08-17T01:59:35;98648.69;;;23.91;64.75
49949;BME280;35840;45.982;8.890;2023-08-17T02:02:02;98640.81;;;23.82;64.11
49949;BME280;35840;45.982;8.890;2023-08-17T02:04:29;98658.88;;;23.77;65.28
49949;BME280;35840;45.982;8.890;2023-08-17T02:06:56;98669.28;;;23.62;66.48
49949;BME280;35840;45.982;8.890;2023-08-17T02:09:23;98669.78;;;23.58;67.32
49949;BME280;35840;45.982;8.890;2023-08-17T02:11:51;98664.91;;;23.46;68.14
49949;BME280;35840;45.982;8.890;2023-08-17T02:14:18;98667.69;;;23.45;68.89
49949;BME280;35840;45.982;8.890;2023-08-17T02:16:45;98659.66;;;23.46;69.01
49949;BME280;35840;45.982;8.890;2023-08-17T02:19:12;98653.09;;;23.50;69.18
49949;BME280;35840;45.982;8.890;2023-08-17T02:21:41;98662.38;;;23.61;68.95
49949;BME280;35840;45.982;8.890;2023-08-17T02:24:07;98659.56;;;23.71;68.51
49949;BME280;35840;45.982;8.890;2023-08-17T02:26:34;98655.81;;;23.65;67.46
49949;BME280;35840;45.982;8.890;2023-08-17T02:29:01;98652.75;;;23.53;69.62
49949;BME280;35840;45.982;8.890;2023-08-17T02:31:28;98647.53;;;23.37;70.19
49949;BME280;35840;45.982;8.890;2023-08-17T02:33:56;98644.91;;;23.29;69.85
49949;BME280;35840;45.982;8.890;2023-08-17T02:36:27;98639.31;;;23.32;69.67
49949;BME280;35840;45.982;8.890;2023-08-17T02:38:54;98640.00;;;23.34;69.14
49949;BME280;35840;45.982;8.890;2023-08-17T02:41:21;98632.75;;;23.36;69.39
49949;BME280;35840;45.982;8.890;2023-08-17T02:43:47;98628.47;;;23.43;69.35
49949;BME280;35840;45.982;8.890;2023-08-17T02:46:14;98621.63;;;23.42;68.54
49949;BME280;35840;45.982;8.890;2023-08-17T02:48:41;98614.72;;;23.41;68.11
49949;BME280;35840;45.982;8.890;2023-08-17T02:51:08;98616.38;;;23.42;68.18
49949;BME280;35840;45.982;8.890;2023-08-17T02:53:35;98610.78;;;23.45;68.28
49949;BME280;35840;45.982;8.890;2023-08-17T02:56:02;98608.28;;;23.52;68.32
49949;BME280;35840;45.982;8.890;2023-08-17T02:58:29;98605.50;;;23.53;68.17
49949;BME280;35840;45.982;8.890;2023-08-17T03:00:56;98600.59;;;23.50;68.07
49949;BME280;35840;45.982;8.890;2023-08-17T03:03:22;98594.03;;;23.46;68.51
49949;BME280;35840;45.982;8.890;2023-08-17T03:05:49;98597.31;;;23.48;68.77
49949;BME280;35840;45.982;8.890;2023-08-17T03:08:16;98598.28;;;23.47;68.83
49949;BME280;35840;45.982;8.890;2023-08-17T03:10:43;98598.00;;;23.42;69.32
49949;BME280;35840;45.982;8.890;2023-08-17T03:13:09;98604.19;;;23.49;69.65
49949;BME280;35840;45.982;8.890;2023-08-17T03:15:36;98588.59;;;23.56;69.27
49949;BME280;35840;45.982;8.890;2023-08-17T03:18:06;98585.44;;;23.61;68.88
49949;BME280;35840;45.982;8.890;2023-08-17T03:20:33;98576.09;;;23.58;68.22
49949;BME280;35840;45.982;8.890;2023-08-17T03:23:00;98573.00;;;23.54;68.38
49949;BME280;35840;45.982;8.890;2023-08-17T03:25:27;98561.34;;;23.57;68.50
49949;BME280;35840;45.982;8.890;2023-08-17T03:27:54;98556.28;;;23.55;68.61
49949;BME280;35840;45.982;8.890;2023-08-17T03:30:20;98556.44;;;23.54;68.62
49949;BME280;35840;45.982;8.890;2023-08-17T03:32:47;98553.00;;;23.53;68.85
49949;BME280;35840;45.982;8.890;2023-08-17T03:35:15;98549.88;;;23.58;69.26
49949;BME280;35840;45.982;8.890;2023-08-17T03:37:42;98553.47;;;23.57;68.73
49949;BME280;35840;45.982;8.890;2023-08-17T03:40:10;98549.09;;;23.49;68.99
49949;BME280;35840;45.982;8.890;2023-08-17T03:42:37;98548.16;;;23.34;69.65
49949;BME280;35840;45.982;8.890;2023-08-17T03:45:04;98541.97;;;23.27;70.11
49949;BME280;35840;45.982;8.890;2023-08-17T03:47:32;98545.22;;;23.29;70.83
49949;BME280;35840;45.982;8.890;2023-08-17T03:50:00;98540.94;;;23.36;71.05
49949;BME280;35840;45.982;8.890;2023-08-17T03:52:26;98540.28;;;23.34;71.97
49949;BME280;35840;45.982;8.890;2023-08-17T03:54:53;98540.75;;;23.37;72.55
49949;BME280;35840;45.982;8.890;2023-08-17T03:57:20;98538.81;;;23.40;72.93
49949;BME280;35840;45.982;8.890;2023-08-17T03:59:47;98541.66;;;23.13;74.56
49949;BME280;35840;45.982;8.890;2023-08-17T04:02:14;98536.59;;;23.12;74.79
49949;BME280;35840;45.982;8.890;2023-08-17T04:04:40;98538.22;;;23.21;74.26
49949;BME280;35840;45.982;8.890;2023-08-17T04:07:07;98532.78;;;23.31;73.84
49949;BME280;35840;45.982;8.890;2023-08-17T04:09:34;98529.00;;;23.33;73.44
49949;BME280;35840;45.982;8.890;2023-08-17T04:12:01;98527.63;;;23.37;72.92
49949;BME280;35840;45.982;8.890;2023-08-17T04:14:35;98533.84;;;22.89;73.71
49949;BME280;35840;45.982;8.890;2023-08-17T04:17:03;98538.91;;;23.07;73.86
49949;BME280;35840;45.982;8.890;2023-08-17T04:19:30;98534.94;;;23.19;73.77
49949;BME280;35840;45.982;8.890;2023-08-17T04:21:57;98535.31;;;22.99;74.44
49949;BME280;35840;45.982;8.890;2023-08-17T04:24:24;98532.59;;;22.51;77.03
49949;BME280;35840;45.982;8.890;2023-08-17T04:26:52;98528.19;;;22.52;77.36
49949;BME280;35840;45.982;8.890;2023-08-17T04:29:18;98527.03;;;22.63;77.27
49949;BME280;35840;45.982;8.890;2023-08-17T04:31:45;98519.66;;;22.33;78.25
49949;BME280;35840;45.982;8.890;2023-08-17T04:34:12;98515.72;;;22.13;79.63
49949;BME280;35840;45.982;8.890;2023-08-17T04:36:39;98516.22;;;22.16;79.27
49949;BME280;35840;45.982;8.890;2023-08-17T04:39:06;98523.06;;;22.09;79.46
49949;BME280;35840;45.982;8.890;2023-08-17T04:41:33;98512.13;;;22.22;78.87
49949;BME280;35840;45.982;8.890;2023-08-17T04:44:02;98516.22;;;22.25;78.73
49949;BME280;35840;45.982;8.890;2023-08-17T04:46:29;98516.88;;;22.35;78.41
49949;BME280;35840;45.982;8.890;2023-08-17T04:48:56;98511.81;;;22.50;78.14
49949;BME280;35840;45.982;8.890;2023-08-17T04:51:23;98508.03;;;22.19;78.86
49949;BME280;35840;45.982;8.890;2023-08-17T04:53:51;98496.72;;;22.11;79.53
49949;BME280;35840;45.982;8.890;2023-08-17T04:56:18;98497.75;;;22.34;78.59
49949;BME280;35840;45.982;8.890;2023-08-17T04:58:45;98497.06;;;22.49;78.18
49949;BME280;35840;45.982;8.890;2023-08-17T05:01:13;98507.38;;;22.59;77.53
49949;BME280;35840;45.982;8.890;2023-08-17T05:03:40;98498.38;;;22.61;77.24
49949;BME280;35840;45.982;8.890;2023-08-17T05:06:07;98509.81;;;22.68;77.12
49949;BME280;35840;45.982;8.890;2023-08-17T05:08:35;98517.00;;;22.75;77.57
49949;BME280;35840;45.982;8.890;2023-08-17T05:11:02;98512.56;;;22.83;77.32
49949;BME280;35840;45.982;8.890;2023-08-17T05:13:28;98509.59;;;22.86;77.29
49949;BME280;35840;45.982;8.890;2023-08-17T05:16:01;98501.72;;;22.95;76.80
49949;BME280;35840;45.982;8.890;2023-08-17T05:18:28;98508.41;;;23.06;76.40
49949;BME280;35840;45.982;8.890;2023-08-17T05:20:56;98509.22;;;23.14;75.87
49949;BME280;35840;45.982;8.890;2023-08-17T05:23:22;98497.91;;;23.22;75.13
49949;BME280;35840;45.982;8.890;2023-08-17T05:25:50;98498.53;;;23.08;76.56
49949;BME280;35840;45.982;8.890;2023-08-17T05:28:16;98509.88;;;23.16;76.51
49949;BME280;35840;45.982;8.890;2023-08-17T05:30:43;98512.16;;;23.19;76.60
49949;BME280;35840;45.982;8.890;2023-08-17T05:33:10;98515.25;;;23.23;76.17
49949;BME280;35840;45.982;8.890;2023-08-17T05:35:38;98512.94;;;23.28;75.83
49949;BME280;35840;45.982;8.890;2023-08-17T05:38:04;98514.88;;;23.34;75.49
49949;BME280;35840;45.982;8.890;2023-08-17T05:40:32;98510.28;;;23.36;76.03
49949;BME280;35840;45.982;8.890;2023-08-17T05:42:58;98513.72;;;23.37;75.18
49949;BME280;35840;45.982;8.890;2023-08-17T05:45:25;98517.63;;;23.41;74.57
49949;BME280;35840;45.982;8.890;2023-08-17T05:47:52;98516.47;;;23.44;74.22
49949;BME280;35840;45.982;8.890;2023-08-17T05:50:20;98523.38;;;23.45;74.27
49949;BME280;35840;45.982;8.890;2023-08-17T05:52:46;98526.28;;;23.50;73.92
49949;BME280;35840;45.982;8.890;2023-08-17T05:55:13;98524.31;;;23.52;73.53
49949;BME280;35840;45.982;8.890;2023-08-17T05:57:40;98516.28;;;23.53;73.75
49949;BME280;35840;45.982;8.890;2023-08-17T06:00:07;98512.50;;;23.56;73.41
49949;BME280;35840;45.982;8.890;2023-08-17T06:02:41;98514.28;;;23.55;73.30
49949;BME280;35840;45.982;8.890;2023-08-17T06:05:08;98517.06;;;23.54;73.29
49949;BME280;35840;45.982;8.890;2023-08-17T06:07:35;98514.94;;;23.58;73.43
49949;BME280;35840;45.982;8.890;2023-08-17T06:10:04;98521.16;;;23.57;73.60
49949;BME280;35840;45.982;8.890;2023-08-17T06:12:31;98527.22;;;23.57;73.14
49949;BME280;35840;45.982;8.890;2023-08-17T06:14:58;98520.63;;;23.61;73.18
49949;BME280;35840;45.982;8.890;2023-08-17T06:17:24;98517.50;;;23.66;73.82
49949;BME280;35840;45.982;8.890;2023-08-17T06:19:51;98520.78;;;23.68;74.02
49949;BME280;35840;45.982;8.890;2023-08-17T06:22:18;98530.75;;;23.72;73.04
49949;BME280;35840;45.982;8.890;2023-08-17T06:24:45;98528.25;;;23.79;72.70
49949;BME280;35840;45.982;8.890;2023-08-17T06:27:14;98519.44;;;23.72;72.69
49949;BME280;35840;45.982;8.890;2023-08-17T06:29:41;98527.41;;;23.79;72.54
49949;BME280;35840;45.982;8.890;2023-08-17T06:32:07;98523.00;;;23.79;71.47
49949;BME280;35840;45.982;8.890;2023-08-17T06:34:34;98529.19;;;23.86;70.96
49949;BME280;35840;45.982;8.890;2023-08-17T06:37:03;98528.44;;;23.78;71.18
49949;BME280;35840;45.982;8.890;2023-08-17T06:39:30;98535.16;;;23.80;71.42
49949;BME280;35840;45.982;8.890;2023-08-17T06:41:57;98532.41;;;23.73;71.88
49949;BME280;35840;45.982;8.890;2023-08-17T06:44:24;98527.31;;;23.72;71.95
49949;BME280;35840;45.982;8.890;2023-08-17T06:46:50;98531.28;;;23.68;71.96
49949;BME280;35840;45.982;8.890;2023-08-17T06:49:17;98532.25;;;23.67;71.89
49949;BME280;35840;45.982;8.890;2023-08-17T06:51:44;98532.25;;;23.67;71.19
49949;BME280;35840;45.982;8.890;2023-08-17T06:54:11;98531.63;;;23.65;71.38
49949;BME280;35840;45.982;8.890;2023-08-17T06:56:37;98530.28;;;23.69;71.70
49949;BME280;35840;45.982;8.890;2023-08-17T06:59:04;98533.38;;;23.72;71.23
49949;BME280;35840;45.982;8.890;2023-08-17T07:01:31;98531.09;;;23.69;71.07
49949;BME280;35840;45.982;8.890;2023-08-17T07:03:58;98531.09;;;23.69;70.57
49949;BME280;35840;45.982;8.890;2023-08-17T07:06:25;98516.38;;;23.60;70.39
49949;BME280;35840;45.982;8.890;2023-08-17T07:08:51;98534.59;;;23.62;70.54
49949;BME280;35840;45.982;8.890;2023-08-17T07:11:19;98530.78;;;23.64;70.16
49949;BME280;35840;45.982;8.890;2023-08-17T07:13:46;98539.97;;;23.68;70.51
49949;BME280;35840;45.982;8.890;2023-08-17T07:16:13;98537.66;;;23.73;70.60
49949;BME280;35840;45.982;8.890;2023-08-17T07:18:40;98539.75;;;23.78;70.62
49949;BME280;35840;45.982;8.890;2023-08-17T07:21:06;98531.69;;;23.80;70.63
49949;BME280;35840;45.982;8.890;2023-08-17T07:23:33;98534.84;;;23.75;71.03
49949;BME280;35840;45.982;8.890;2023-08-17T07:26:00;98523.72;;;23.73;71.11
49949;BME280;35840;45.982;8.890;2023-08-17T07:28:27;98525.44;;;23.81;71.15
49949;BME280;35840;45.982;8.890;2023-08-17T07:30:54;98535.97;;;23.81;71.23
49949;BME280;35840;45.982;8.890;2023-08-17T07:33:20;98537.56;;;23.90;70.93
49949;BME280;35840;45.982;8.890;2023-08-17T07:35:47;98529.44;;;24.00;70.64
49949;BME280;35840;45.982;8.890;2023-08-17T07:38:14;98534.06;;;23.98;70.31
49949;BME280;35840;45.982;8.890;2023-08-17T07:40:40;98541.06;;;24.05;70.26
49949;BME280;35840;45.982;8.890;2023-08-17T07:43:09;98540.03;;;24.15;70.49
49949;BME280;35840;45.982;8.890;2023-08-17T07:45:36;98537.22;;;24.16;70.74
49949;BME280;35840;45.982;8.890;2023-08-17T07:48:02;98526.34;;;24.19;70.59
49949;BME280;35840;45.982;8.890;2023-08-17T07:50:29;98535.53;;;24.23;71.48
49949;BME280;35840;45.982;8.890;2023-08-17T07:52:56;98533.38;;;24.27;71.41
49949;BME280;35840;45.982;8.890;2023-08-17T07:55:23;98531.00;;;24.32;70.98
49949;BME280;35840;45.982;8.890;2023-08-17T07:57:50;98534.31;;;24.34;70.63
49949;BME280;35840;45.982;8.890;2023-08-17T08:00:17;98531.50;;;24.36;70.26
49949;BME280;35840;45.982;8.890;2023-08-17T08:02:44;98528.38;;;24.32;70.43
49949;BME280;35840;45.982;8.890;2023-08-17T08:05:10;98526.22;;;24.36;71.24
49949;BME280;35840;45.982;8.890;2023-08-17T08:07:39;98523.06;;;24.40;70.87
49949;BME280;35840;45.982;8.890;2023-08-17T08:10:06;98532.06;;;24.46;71.09
49949;BME280;35840;45.982;8.890;2023-08-17T08:12:33;98523.19;;;24.47;70.40
49949;BME280;35840;45.982;8.890;2023-08-17T08:15:00;98520.25;;;24.42;69.56
49949;BME280;35840;45.982;8.890;2023-08-17T08:17:27;98511.75;;;24.40;69.20
49949;BME280;35840;45.982;8.890;2023-08-17T08:19:55;98511.84;;;24.47;69.08
49949;BME280;35840;45.982;8.890;2023-08-17T08:22:22;98505.03;;;24.52;68.88
49949;BME280;35840;45.982;8.890;2023-08-17T08:24:48;98509.31;;;24.53;68.80
49949;BME280;35840;45.982;8.890;2023-08-17T08:27:15;98509.31;;;24.53;68.52
49949;BME280;35840;45.982;8.890;2023-08-17T08:29:42;98513.03;;;24.59;68.86
49949;BME280;35840;45.982;8.890;2023-08-17T08:32:09;98517.78;;;24.64;68.06
49949;BME280;35840;45.982;8.890;2023-08-17T08:34:35;98517.88;;;24.70;67.58
49949;BME280;35840;45.982;8.890;2023-08-17T08:37:02;98517.72;;;24.72;66.84
49949;BME280;35840;45.982;8.890;2023-08-17T08:39:29;98513.91;;;24.74;67.00
49949;BME280;35840;45.982;8.890;2023-08-17T08:41:56;98518.78;;;24.78;66.65
49949;BME280;35840;45.982;8.890;2023-08-17T08:44:23;98521.25;;;24.79;66.01
49949;BME280;35840;45.982;8.890;2023-08-17T08:46:50;98519.44;;;24.80;65.96
49949;BME280;35840;45.982;8.890;2023-08-17T08:49:20;98517.63;;;24.80;66.23
49949;BME280;35840;45.982;8.890;2023-08-17T08:51:50;98521.34;;;24.86;65.66
49949;BME280;35840;45.982;8.890;2023-08-17T08:54:21;98522.44;;;24.91;65.33
49949;BME280;35840;45.982;8.890;2023-08-17T08:56:59;98521.38;;;25.01;64.73
49949;BME280;35840;45.982;8.890;2023-08-17T08:59:28;98518.78;;;25.07;63.82
49949;BME280;35840;45.982;8.890;2023-08-17T09:01:57;98512.91;;;25.05;63.38
49949;BME280;35840;45.982;8.890;2023-08-17T09:04:25;98511.38;;;25.11;64.16
49949;BME280;35840;45.982;8.890;2023-08-17T09:06:53;98505.72;;;25.14;63.32
49949;BME280;35840;45.982;8.890;2023-08-17T09:09:21;98510.00;;;25.15;63.77
49949;BME280;35840;45.982;8.890;2023-08-17T09:11:54;98506.00;;;25.19;63.54
49949;BME280;35840;45.982;8.890;2023-08-17T09:14:21;98494.13;;;25.23;63.31
49949;BME280;35840;45.982;8.890;2023-08-17T09:16:47;98497.56;;;25.24;63.31
49949;BME280;35840;45.982;8.890;2023-08-17T09:19:14;98502.03;;;25.23;63.32
49949;BME280;35840;45.982;8.890;2023-08-17T09:21:41;98493.09;;;25.24;62.93
49949;BME280;35840;45.982;8.890;2023-08-17T09:24:08;98489.66;;;25.24;63.24
49949;BME280;35840;45.982;8.890;2023-08-17T09:26:35;98489.28;;;25.27;63.05
49949;BME280;35840;45.982;8.890;2023-08-17T09:29:16;98483.50;;;25.32;62.57
49949;BME280;35840;45.982;8.890;2023-08-17T09:31:45;98484.38;;;25.39;62.96
49949;BME280;35840;45.982;8.890;2023-08-17T09:34:14;98476.34;;;25.40;62.00
49949;BME280;35840;45.982;8.890;2023-08-17T09:36:41;98480.56;;;25.41;62.20
49949;BME280;35840;45.982;8.890;2023-08-17T09:39:08;98471.50;;;25.44;62.16
49949;BME280;35840;45.982;8.890;2023-08-17T09:41:41;98471.06;;;25.40;61.40
49949;BME280;35840;45.982;8.890;2023-08-17T09:44:10;98474.25;;;25.36;62.03
49949;BME280;35840;45.982;8.890;2023-08-17T09:46:43;98472.69;;;25.41;62.46
49949;BME280;35840;45.982;8.890;2023-08-17T09:49:12;98476.00;;;25.50;61.79
49949;BME280;35840;45.982;8.890;2023-08-17T09:51:43;98471.47;;;25.59;62.76
49949;BME280;35840;45.982;8.890;2023-08-17T09:54:23;98470.53;;;25.67;62.01
49949;BME280;35840;45.982;8.890;2023-08-17T09:56:57;98464.44;;;25.66;61.40
49949;BME280;35840;45.982;8.890;2023-08-17T09:59:26;98459.69;;;25.76;60.70
49949;BME280;35840;45.982;8.890;2023-08-17T10:01:56;98455.09;;;25.85;60.41
49949;BME280;35840;45.982;8.890;2023-08-17T10:04:25;98457.34;;;25.88;59.86
49949;BME280;35840;45.982;8.890;2023-08-17T10:07:03;98443.75;;;25.85;59.87
49949;BME280;35840;45.982;8.890;2023-08-17T10:09:35;98455.34;;;25.90;60.22
49949;BME280;35840;45.982;8.890;2023-08-17T10:12:10;98445.88;;;25.96;59.68
49949;BME280;35840;45.982;8.890;2023-08-17T10:14:39;98449.13;;;25.98;58.34
49949;BME280;35840;45.982;8.890;2023-08-17T10:17:13;98441.78;;;25.93;57.41
49949;BME280;35840;45.982;8.890;2023-08-17T10:19:51;98445.03;;;25.95;57.54
49949;BME280;35840;45.982;8.890;2023-08-17T10:22:33;98445.50;;;25.99;57.71
49949;BME280;35840;45.982;8.890;2023-08-17T10:25:00;98438.38;;;26.00;57.94
49949;BME280;35840;45.982;8.890;2023-08-17T10:27:28;98439.47;;;26.05;57.14
49949;BME280;35840;45.982;8.890;2023-08-17T10:29:56;98435.03;;;26.06;57.47
49949;BME280;35840;45.982;8.890;2023-08-17T10:32:23;98429.13;;;26.04;57.65
49949;BME280;35840;45.982;8.890;2023-08-17T10:34:52;98430.84;;;26.18;58.81
49949;BME280;35840;45.982;8.890;2023-08-17T10:37:20;98431.09;;;26.23;57.91
49949;BME280;35840;45.982;8.890;2023-08-17T10:39:48;98424.19;;;26.22;57.08
49949;BME280;35840;45.982;8.890;2023-08-17T10:42:29;98428.28;;;26.25;55.58
49949;BME280;35840;45.982;8.890;2023-08-17T10:44:57;98425.88;;;26.30;56.55
49949;BME280;35840;45.982;8.890;2023-08-17T10:47:28;98419.56;;;26.24;56.58
49949;BME280;35840;45.982;8.890;2023-08-17T10:50:05;98417.00;;;26.38;57.89
49949;BME280;35840;45.982;8.890;2023-08-17T10:52:35;98417.44;;;26.41;56.55
49949;BME280;35840;45.982;8.890;2023-08-17T10:55:07;98411.53;;;26.39;55.97
49949;BME280;35840;45.982;8.890;2023-08-17T10:57:38;98406.25;;;26.33;56.82
49949;BME280;35840;45.982;8.890;2023-08-17T11:00:17;98402.22;;;26.43;57.63
49949;BME280;35840;45.982;8.890;2023-08-17T11:03:02;98389.75;;;26.59;57.54
49949;BME280;35840;45.982;8.890;2023-08-17T11:05:51;98387.63;;;26.76;56.74
49949;BME280;35840;45.982;8.890;2023-08-17T11:08:32;98387.41;;;26.77;55.57
49949;BME280;35840;45.982;8.890;2023-08-17T11:13:30;98382.94;;;26.71;56.48
49949;BME280;35840;45.982;8.890;2023-08-17T11:15:58;98383.31;;;26.68;55.82
49949;BME280;35840;45.982;8.890;2023-08-17T11:18:33;98379.91;;;26.74;55.55
49949;BME280;35840;45.982;8.890;2023-08-17T11:21:01;98376.47;;;26.80;56.50
49949;BME280;35840;45.982;8.890;2023-08-17T11:23:31;98363.94;;;26.89;56.15
49949;BME280;35840;45.982;8.890;2023-08-17T11:25:58;98369.41;;;26.94;55.57
49949;BME280;35840;45.982;8.890;2023-08-17T11:28:26;98363.38;;;27.01;54.81
49949;BME280;35840;45.982;8.890;2023-08-17T11:31:00;98357.22;;;26.93;54.17
49949;BME280;35840;45.982;8.890;2023-08-17T11:33:28;98356.84;;;26.96;55.03
49949;BME280;35840;45.982;8.890;2023-08-17T11:36:00;98362.34;;;27.08;55.87
49949;BME280;35840;45.982;8.890;2023-08-17T11:38:31;98352.41;;;27.17;55.74
49949;BME280;35840;45.982;8.890;2023-08-17T11:41:00;98357.13;;;27.28;56.16
49949;BME280;35840;45.982;8.890;2023-08-17T11:43:28;98359.59;;;27.37;56.10
49949;BME280;35840;45.982;8.890;2023-08-17T11:45:56;98353.50;;;27.43;56.05
49949;BME280;35840;45.982;8.890;2023-08-17T11:48:23;98348.84;;;27.38;56.34
49949;BME280;35840;45.982;8.890;2023-08-17T11:50:51;98346.41;;;27.37;56.11
49949;BME280;35840;45.982;8.890;2023-08-17T11:53:18;98357.19;;;27.42;56.17
49949;BME280;35840;45.982;8.890;2023-08-17T11:55:45;98349.25;;;27.42;55.85
49949;BME280;35840;45.982;8.890;2023-08-17T11:58:12;98353.50;;;27.43;55.97
49949;BME280;35840;45.982;8.890;2023-08-17T12:00:41;98345.19;;;27.46;55.81
49949;BME280;35840;45.982;8.890;2023-08-17T12:03:13;98342.97;;;27.56;55.98
49949;BME280;35840;45.982;8.890;2023-08-17T12:05:40;98335.22;;;27.61;55.82
49949;BME280;35840;45.982;8.890;2023-08-17T12:08:07;98329.16;;;27.68;55.90
49949;BME280;35840;45.982;8.890;2023-08-17T12:10:37;98330.75;;;27.75;55.26
49949;BME280;35840;45.982;8.890;2023-08-17T12:13:04;98330.34;;;27.78;55.72
49949;BME280;35840;45.982;8.890;2023-08-17T12:15:32;98325.25;;;27.83;55.58
49949;BME280;35840;45.982;8.890;2023-08-17T12:18:02;98326.69;;;27.93;56.25
49949;BME280;35840;45.982;8.890;2023-08-17T12:20:29;98326.25;;;28.03;55.99
49949;BME280;35840;45.982;8.890;2023-08-17T12:22:58;98329.94;;;28.02;54.43
49949;BME280;35840;45.982;8.890;2023-08-17T12:25:27;98324.25;;;28.05;54.56
49949;BME280;35840;45.982;8.890;2023-08-17T12:27:54;98326.25;;;28.09;54.79
49949;BME280;35840;45.982;8.890;2023-08-17T12:30:32;98327.66;;;28.19;54.85
49949;BME280;35840;45.982;8.890;2023-08-17T12:33:02;98319.13;;;28.16;55.02
49949;BME280;35840;45.982;8.890;2023-08-17T12:35:30;98329.69;;;28.16;54.78
49949;BME280;35840;45.982;8.890;2023-08-17T12:37:57;98326.25;;;28.16;54.39
49949;BME280;35840;45.982;8.890;2023-08-17T12:40:24;98319.97;;;28.10;53.90
49949;BME280;35840;45.982;8.890;2023-08-17T12:42:51;98307.97;;;28.08;53.88
49949;BME280;35840;45.982;8.890;2023-08-17T12:45:18;98315.25;;;28.19;54.25
49949;BME280;35840;45.982;8.890;2023-08-17T12:47:45;98302.84;;;28.20;52.59
49949;BME280;35840;45.982;8.890;2023-08-17T12:50:12;98301.41;;;28.24;52.65
49949;BME280;35840;45.982;8.890;2023-08-17T12:52:39;98296.09;;;28.30;52.52
49949;BME280;35840;45.982;8.890;2023-08-17T12:55:06;98295.69;;;28.33;51.90
49949;BME280;35840;45.982;8.890;2023-08-17T12:57:34;98297.72;;;28.31;51.40
49949;BME280;35840;45.982;8.890;2023-08-17T13:00:01;98292.22;;;28.33;51.89
49949;BME280;35840;45.982;8.890;2023-08-17T13:02:28;98295.22;;;28.43;52.72
49949;BME280;35840;45.982;8.890;2023-08-17T13:04:56;98294.84;;;28.40;51.71
49949;BME280;35840;45.982;8.890;2023-08-17T13:07:22;98289.16;;;28.43;51.35
49949;BME280;35840;45.982;8.890;2023-08-17T13:09:49;98279.53;;;28.55;52.73